createdAt,value
2022-07-29T00:01:42.692Z,46.10
2022-07-29T00:04:10.094Z,46.50
2022-07-29T00:06:37.526Z,46.50
2022-07-29T00:09:04.795Z,47.30
2022-07-29T00:11:32.075Z,46.40
2022-07-29T00:13:59.177Z,46.20
2022-07-29T00:16:26.434Z,46.00
2022-07-29T00:18:53.557Z,45.90
2022-07-29T00:21:20.762Z,46.60
2022-07-29T00:23:48.024Z,46.70
2022-07-29T00:26:15.180Z,47.20
2022-07-29T00:28:42.333Z,47.20
2022-07-29T00:31:09.586Z,47.40
2022-07-29T00:33:36.793Z,47.60
2022-07-29T00:36:04.345Z,47.60
2022-07-29T00:38:31.723Z,47.20
2022-07-29T00:40:59.033Z,47.40
2022-07-29T00:43:26.211Z,47.00
2022-07-29T00:45:53.680Z,47.60
2022-07-29T00:48:20.922Z,48.00
2022-07-29T00:50:49.867Z,47.90
2022-07-29T00:53:17.294Z,47.50
2022-07-29T00:55:44.452Z,47.60
2022-07-29T00:58:14.893Z,47.80
2022-07-29T01:00:43.820Z,48.40
2022-07-29T01:03:13.139Z,48.50
2022-07-29T01:05:48.399Z,48.30
2022-07-29T01:08:20.054Z,48.20
2022-07-29T01:10:48.021Z,48.00
2022-07-29T01:13:17.603Z,47.80
2022-07-29T01:15:57.608Z,47.80
2022-07-29T01:18:40.729Z,48.50
2022-07-29T01:21:54.690Z,48.80
2022-07-29T01:25:01.838Z,49.00
2022-07-29T01:28:12.468Z,49.20
2022-07-29T01:30:43.119Z,48.80
2022-07-29T01:33:38.373Z,49.10
2022-07-29T01:36:14.095Z,49.40
2022-07-29T01:38:46.189Z,49.70
2022-07-29T01:41:20.755Z,49.70
2022-07-29T01:44:03.814Z,50.00
2022-07-29T01:46:38.442Z,50.20
2022-07-29T01:49:17.786Z,50.30
2022-07-29T01:52:01.768Z,50.70
2022-07-29T01:55:00.326Z,50.50
2022-07-29T01:57:31.857Z,50.10
2022-07-29T02:00:01.904Z,49.80
2022-07-29T02:02:44.725Z,49.50
2022-07-29T02:05:17.182Z,49.40
2022-07-29T02:07:47.583Z,50.10
2022-07-29T02:10:18.001Z,50.50
2022-07-29T02:12:50.810Z,51.00
2022-07-29T02:15:20.070Z,51.20
2022-07-29T02:18:01.060Z,50.80
2022-07-29T02:20:31.013Z,50.70
2022-07-29T02:23:00.624Z,50.70
2022-07-29T02:25:36.893Z,50.80
2022-07-29T02:28:07.527Z,51.00
2022-07-29T02:30:40.269Z,50.90
2022-07-29T02:33:09.781Z,50.90
2022-07-29T02:35:38.126Z,50.80
2022-07-29T02:38:24.200Z,50.50
2022-07-29T02:40:54.687Z,50.60
2022-07-29T02:43:24.141Z,50.30
2022-07-29T02:45:56.052Z,50.20
2022-07-29T02:48:37.550Z,50.40
2022-07-29T02:51:44.686Z,50.80
2022-07-29T02:54:27.164Z,50.90
2022-07-29T02:56:56.732Z,51.00
2022-07-29T02:59:31.769Z,51.10
2022-07-29T03:02:01.338Z,50.90
2022-07-29T03:04:31.802Z,50.70
2022-07-29T03:07:01.782Z,50.50
2022-07-29T03:09:30.942Z,50.70
2022-07-29T03:11:59.095Z,50.60
2022-07-29T03:14:27.597Z,50.50
2022-07-29T03:16:55.245Z,51.40
2022-07-29T03:19:23.219Z,51.80
2022-07-29T03:21:50.926Z,52.60
2022-07-29T03:24:33.092Z,52.30
2022-07-29T03:27:01.265Z,52.90
2022-07-29T03:29:33.910Z,52.50
2022-07-29T03:32:07.275Z,52.50
2022-07-29T03:34:35.825Z,52.90
2022-07-29T03:37:03.023Z,53.20
2022-07-29T03:39:38.144Z,53.00
2022-07-29T03:42:09.437Z,52.60
2022-07-29T03:44:38.246Z,52.70
2022-07-29T03:47:09.417Z,52.80
2022-07-29T03:49:40.164Z,52.90
2022-07-29T03:52:07.744Z,52.90
2022-07-29T03:54:35.610Z,52.70
2022-07-29T03:57:04.623Z,52.70
2022-07-29T03:59:37.306Z,53.20
2022-07-29T04:02:06.546Z,53.70
2022-07-29T04:04:35.690Z,53.80
2022-07-29T04:07:03.365Z,53.60
2022-07-29T04:09:30.968Z,53.40
2022-07-29T04:12:15.399Z,53.20
2022-07-29T04:14:42.724Z,52.90
2022-07-29T04:17:09.903Z,52.90
2022-07-29T04:19:36.985Z,53.50
2022-07-29T04:22:04.359Z,53.80
2022-07-29T04:24:31.756Z,53.80
2022-07-29T04:26:58.897Z,54.30
2022-07-29T04:29:25.966Z,54.90
2022-07-29T04:31:53.106Z,54.00
2022-07-29T04:34:20.685Z,55.40
2022-07-29T04:36:48.113Z,55.10
2022-07-29T04:39:20.697Z,54.50
2022-07-29T04:41:51.227Z,54.60
2022-07-29T04:44:20.145Z,55.50
2022-07-29T04:46:47.316Z,56.20
2022-07-29T04:49:14.610Z,56.60
2022-07-29T04:51:41.882Z,56.40
2022-07-29T04:54:09.039Z,56.40
2022-07-29T04:56:36.370Z,56.80
2022-07-29T04:59:03.621Z,56.60
2022-07-29T05:01:30.882Z,56.30
2022-07-29T05:04:00.451Z,56.10
2022-07-29T05:06:27.968Z,56.20
2022-07-29T05:08:55.073Z,55.50
2022-07-29T05:11:24.939Z,56.00
2022-07-29T05:13:54.440Z,55.80
2022-07-29T05:16:22.448Z,55.90
2022-07-29T05:18:49.644Z,56.10
2022-07-29T05:21:16.856Z,56.70
2022-07-29T05:23:44.062Z,57.30
2022-07-29T05:26:11.518Z,57.50
2022-07-29T05:28:38.925Z,57.60
2022-07-29T05:31:06.176Z,57.40
2022-07-29T05:33:34.848Z,57.50
2022-07-29T05:36:07.900Z,57.10
2022-07-29T05:38:37.251Z,56.90
2022-07-29T05:41:06.220Z,56.70
2022-07-29T05:43:34.067Z,56.20
2022-07-29T05:46:01.505Z,56.00
2022-07-29T05:48:28.896Z,56.00
2022-07-29T05:50:56.228Z,55.90
2022-07-29T05:53:23.711Z,55.60
2022-07-29T05:55:51.789Z,55.60
2022-07-29T05:58:19.336Z,55.70
2022-07-29T06:00:47.163Z,55.80
2022-07-29T06:03:14.606Z,55.80
2022-07-29T06:05:41.948Z,56.00
2022-07-29T06:08:09.061Z,56.30
2022-07-29T06:10:36.852Z,56.30
2022-07-29T06:13:04.418Z,56.40
2022-07-29T06:15:31.737Z,56.50
2022-07-29T06:18:00.744Z,56.70
2022-07-29T06:20:32.960Z,56.40
2022-07-29T06:23:01.047Z,56.30
2022-07-29T06:25:35.752Z,56.60
2022-07-29T06:28:02.998Z,56.90
2022-07-29T06:30:30.841Z,56.60
2022-07-29T06:32:58.101Z,56.60
2022-07-29T06:35:41.202Z,56.70
2022-07-29T06:38:30.315Z,56.40
2022-07-29T06:41:01.060Z,55.90
2022-07-29T06:43:36.210Z,56.00
2022-07-29T06:46:19.599Z,55.90
2022-07-29T06:48:48.706Z,55.70
2022-07-29T06:51:22.348Z,55.50
2022-07-29T06:53:59.544Z,55.60
2022-07-29T06:56:39.109Z,55.30
2022-07-29T06:59:12.169Z,54.90
2022-07-29T07:01:43.918Z,54.40
2022-07-29T07:04:13.049Z,54.20
2022-07-29T07:06:40.946Z,54.40
2022-07-29T07:09:08.366Z,54.20
2022-07-29T07:11:35.632Z,54.30
2022-07-29T07:14:04.145Z,54.00
2022-07-29T07:16:33.237Z,53.70
2022-07-29T07:19:01.061Z,53.30
2022-07-29T07:21:30.367Z,53.10
2022-07-29T07:23:59.323Z,52.90
2022-07-29T07:26:26.917Z,52.70
2022-07-29T07:28:54.360Z,52.40
2022-07-29T07:31:21.670Z,52.00
2022-07-29T07:33:49.213Z,51.50
2022-07-29T07:36:16.355Z,51.20
2022-07-29T07:38:43.480Z,51.00
2022-07-29T07:41:10.624Z,50.90
2022-07-29T07:43:37.709Z,50.60
2022-07-29T07:46:05.773Z,50.70
2022-07-29T07:48:33.068Z,51.10
2022-07-29T07:51:00.250Z,51.50
2022-07-29T07:53:27.820Z,51.10
2022-07-29T07:56:12.119Z,50.80
2022-07-29T07:58:40.166Z,50.30
2022-07-29T08:01:07.649Z,50.10
2022-07-29T08:03:35.223Z,50.10
2022-07-29T08:06:03.628Z,50.30
2022-07-29T08:08:30.840Z,50.30
2022-07-29T08:10:58.020Z,49.50
2022-07-29T08:13:31.482Z,49.70
2022-07-29T08:16:05.383Z,49.80
2022-07-29T08:18:32.766Z,49.40
2022-07-29T08:21:00.261Z,49.00
2022-07-29T08:23:47.047Z,48.90
2022-07-29T08:26:16.608Z,48.30
2022-07-29T08:28:46.982Z,47.80
2022-07-29T08:31:15.280Z,47.70
2022-07-29T08:33:43.871Z,48.00
2022-07-29T08:36:11.140Z,47.70
2022-07-29T08:38:38.288Z,47.30
2022-07-29T08:41:05.644Z,47.40
2022-07-29T08:43:33.206Z,47.20
2022-07-29T08:46:01.567Z,46.60
2022-07-29T08:48:28.883Z,46.00
2022-07-29T08:50:57.930Z,46.20
2022-07-29T08:53:28.234Z,46.00
2022-07-29T08:55:57.093Z,46.30
2022-07-29T08:58:26.537Z,46.20
2022-07-29T09:00:58.417Z,46.20
2022-07-29T09:03:31.948Z,46.00
2022-07-29T09:06:00.508Z,45.90
2022-07-29T09:08:29.242Z,46.20
2022-07-29T09:11:01.041Z,46.10
2022-07-29T09:13:31.350Z,46.30
2022-07-29T09:15:58.572Z,46.20
2022-07-29T09:18:46.803Z,46.20
2022-07-29T09:21:36.903Z,46.00
2022-07-29T09:24:14.592Z,45.90
2022-07-29T09:26:46.299Z,45.70
2022-07-29T09:29:23.670Z,45.90
2022-07-29T09:31:56.148Z,45.70
2022-07-29T09:34:30.833Z,45.50
2022-07-29T09:36:58.565Z,45.60
2022-07-29T09:39:45.187Z,45.50
2022-07-29T09:42:14.346Z,45.60
2022-07-29T09:44:50.216Z,46.20
2022-07-29T09:47:26.965Z,47.60
2022-07-29T09:50:00.481Z,49.00
2022-07-29T09:52:31.935Z,50.40
2022-07-29T09:55:17.947Z,50.60
2022-07-29T09:57:47.437Z,49.80
2022-07-29T10:00:19.820Z,49.60
2022-07-29T10:02:48.396Z,49.10
2022-07-29T10:05:36.600Z,48.70
2022-07-29T10:08:04.980Z,48.60
2022-07-29T10:10:39.744Z,48.40
2022-07-29T10:13:15.996Z,50.70
2022-07-29T10:15:47.356Z,49.00
2022-07-29T10:18:18.546Z,49.10
2022-07-29T10:20:46.154Z,49.10
2022-07-29T10:23:13.718Z,48.50
2022-07-29T10:25:45.909Z,47.70
2022-07-29T10:28:16.456Z,47.60
2022-07-29T10:30:46.641Z,47.70
2022-07-29T10:33:42.735Z,47.40
2022-07-29T10:36:50.498Z,47.70
2022-07-29T10:39:59.094Z,48.10
2022-07-29T10:42:34.161Z,48.50
2022-07-29T10:45:05.213Z,48.50
2022-07-29T10:47:32.793Z,48.10
2022-07-29T10:50:05.949Z,47.50
2022-07-29T10:53:08.871Z,47.90
2022-07-29T10:55:45.638Z,48.60
2022-07-29T10:58:22.170Z,48.70
2022-07-29T11:00:55.032Z,49.30
2022-07-29T11:03:50.809Z,49.20
2022-07-29T11:06:26.534Z,48.70
2022-07-29T11:09:20.121Z,48.90
2022-07-29T11:11:52.870Z,48.10
2022-07-29T11:14:57.142Z,48.40
2022-07-29T11:17:25.346Z,48.70
2022-07-29T11:19:52.834Z,47.90
2022-07-29T11:22:43.172Z,48.10
2022-07-29T11:25:19.293Z,48.40
2022-07-29T11:28:22.834Z,48.20
2022-07-29T11:30:54.977Z,47.90
2022-07-29T11:33:54.100Z,48.20
2022-07-29T11:36:28.377Z,48.50
2022-07-29T11:39:36.265Z,47.60
2022-07-29T11:42:28.271Z,48.00
2022-07-29T11:45:42.976Z,46.30
2022-07-29T11:48:05.315Z,46.40
2022-07-29T11:50:48.235Z,45.70
2022-07-29T11:53:16.379Z,45.80
2022-07-29T11:55:51.734Z,45.60
2022-07-29T11:58:25.037Z,45.90
2022-07-29T12:00:55.563Z,45.50
2022-07-29T12:03:34.921Z,45.50
2022-07-29T12:06:11.862Z,45.80
2022-07-29T12:08:45.064Z,45.80
2022-07-29T12:11:22.625Z,44.80
2022-07-29T12:13:52.754Z,45.00
2022-07-29T12:16:27.910Z,45.00
2022-07-29T12:19:02.847Z,43.90
2022-07-29T12:21:59.470Z,43.90
2022-07-29T12:24:27.385Z,43.90
2022-07-29T12:26:58.139Z,43.60
2022-07-29T12:29:35.171Z,42.60
2022-07-29T12:32:05.248Z,43.20
2022-07-29T12:34:33.500Z,41.60
2022-07-29T12:37:01.961Z,41.10
2022-07-29T12:39:29.525Z,42.30
2022-07-29T12:42:03.921Z,42.30
2022-07-29T12:44:52.427Z,41.40
2022-07-29T12:47:21.066Z,39.40
2022-07-29T12:49:50.293Z,38.00
2022-07-29T12:52:34.163Z,38.60
2022-07-29T12:55:02.073Z,39.10
2022-07-29T12:57:29.901Z,37.60
2022-07-29T13:00:11.021Z,38.70
2022-07-29T13:02:40.031Z,38.60
2022-07-29T13:05:12.083Z,38.80
2022-07-29T13:07:55.642Z,36.80
2022-07-29T13:10:25.912Z,36.40
2022-07-29T13:13:15.250Z,34.70
2022-07-29T13:15:48.140Z,36.20
2022-07-29T13:18:32.561Z,37.60
2022-07-29T13:21:13.891Z,36.70
2022-07-29T13:23:41.364Z,35.70
2022-07-29T13:26:12.469Z,36.50
2022-07-29T13:28:40.034Z,33.00
2022-07-29T13:31:07.296Z,34.10
2022-07-29T13:33:34.537Z,33.00
2022-07-29T13:36:01.690Z,33.00
2022-07-29T13:38:31.007Z,32.70
2022-07-29T13:40:59.435Z,31.30
2022-07-29T13:43:26.639Z,31.00
2022-07-29T13:45:53.865Z,31.20
2022-07-29T13:48:21.658Z,31.20
2022-07-29T13:50:49.278Z,30.40
2022-07-29T13:53:17.495Z,31.10
2022-07-29T13:55:45.528Z,31.40
2022-07-29T13:58:12.747Z,32.40
2022-07-29T14:00:39.882Z,32.00
2022-07-29T14:03:07.576Z,32.70
2022-07-29T14:05:35.137Z,32.10
2022-07-29T14:08:02.306Z,31.90
2022-07-29T14:10:29.468Z,32.40
2022-07-29T14:12:56.609Z,32.20
2022-07-29T14:15:24.451Z,32.30
2022-07-29T14:17:51.597Z,32.80
2022-07-29T14:20:18.968Z,33.10
2022-07-29T14:22:46.110Z,33.80
2022-07-29T14:25:14.407Z,34.00
2022-07-29T14:27:42.040Z,34.30
2022-07-29T14:30:10.198Z,34.70
2022-07-29T14:32:37.364Z,34.60
2022-07-29T14:35:06.334Z,33.90
2022-07-29T14:37:40.257Z,33.80
2022-07-29T14:40:09.619Z,33.50
2022-07-29T14:42:38.164Z,32.70
2022-07-29T14:45:10.705Z,32.40
2022-07-29T14:47:39.461Z,32.70
2022-07-29T14:50:08.890Z,32.50
2022-07-29T14:52:36.369Z,32.50
2022-07-29T14:55:05.692Z,33.00
2022-07-29T14:57:44.515Z,33.10
2022-07-29T15:00:12.687Z,33.30
2022-07-29T15:03:00.510Z,33.70
2022-07-29T15:05:28.281Z,33.20
2022-07-29T15:07:55.500Z,33.20
2022-07-29T15:10:22.791Z,33.60
2022-07-29T15:12:52.059Z,33.40
2022-07-29T15:15:19.280Z,32.20
2022-07-29T15:17:46.692Z,33.30
2022-07-29T15:20:14.051Z,33.60
2022-07-29T15:22:43.256Z,33.90
2022-07-29T15:25:11.819Z,33.80
2022-07-29T15:27:38.984Z,34.10
2022-07-29T15:30:06.932Z,32.90
2022-07-29T15:32:34.033Z,32.90
2022-07-29T15:35:01.166Z,33.00
2022-07-29T15:37:48.510Z,32.90
2022-07-29T15:40:16.743Z,32.70
2022-07-29T15:42:43.893Z,32.10
2022-07-29T15:45:11.392Z,31.90
2022-07-29T15:47:38.536Z,32.00
2022-07-29T15:50:07.713Z,32.10
2022-07-29T15:52:34.867Z,32.50
2022-07-29T15:55:01.990Z,32.70
2022-07-29T15:57:29.161Z,33.30
2022-07-29T15:59:56.314Z,33.80
2022-07-29T16:02:23.489Z,34.00
2022-07-29T16:04:50.647Z,34.30
2022-07-29T16:07:18.295Z,34.40
2022-07-29T16:09:50.811Z,34.50
2022-07-29T16:12:19.837Z,34.10
2022-07-29T16:14:49.361Z,34.40
2022-07-29T16:17:17.263Z,34.80
2022-07-29T16:19:45.517Z,35.10
2022-07-29T16:22:13.528Z,35.00
2022-07-29T16:24:41.100Z,35.10
2022-07-29T16:27:08.612Z,35.60
2022-07-29T16:29:37.326Z,36.10
2022-07-29T16:32:06.335Z,36.00
2022-07-29T16:34:33.804Z,36.30
2022-07-29T16:37:01.125Z,36.30
2022-07-29T16:39:28.435Z,36.80
2022-07-29T16:41:59.661Z,37.30
2022-07-29T16:44:28.622Z,37.70
2022-07-29T16:46:58.937Z,38.40
2022-07-29T16:52:16.014Z,39.10
2022-07-29T16:54:43.559Z,39.30
2022-07-29T16:57:11.855Z,39.30
2022-07-29T16:59:43.597Z,39.60
2022-07-29T17:02:12.146Z,39.80
2022-07-29T17:04:39.251Z,39.90
2022-07-29T17:07:06.511Z,40.00
2022-07-29T17:09:33.855Z,40.00
2022-07-29T17:12:01.033Z,40.00
2022-07-29T17:14:31.196Z,40.10
2022-07-29T17:17:02.368Z,40.10
2022-07-29T17:19:34.101Z,40.30
2022-07-29T17:22:17.219Z,40.90
2022-07-29T17:24:47.668Z,44.20
2022-07-29T17:27:15.520Z,45.20
2022-07-29T17:29:43.010Z,46.30
2022-07-29T17:32:11.260Z,47.90
2022-07-29T17:34:40.221Z,49.10
2022-07-29T17:37:10.793Z,49.90
2022-07-29T17:39:41.196Z,50.40
2022-07-29T17:42:11.991Z,50.90
2022-07-29T17:44:40.435Z,51.10
2022-07-29T17:47:15.609Z,51.40
2022-07-29T17:49:45.211Z,56.50
2022-07-29T17:52:12.518Z,60.60
2022-07-29T17:54:39.625Z,64.70
2022-07-29T17:57:06.947Z,66.00
2022-07-29T17:59:34.099Z,67.20
2022-07-29T18:02:01.249Z,69.00
2022-07-29T18:04:29.260Z,68.20
2022-07-29T18:06:56.679Z,67.60
2022-07-29T18:09:24.068Z,68.40
2022-07-29T18:11:51.795Z,68.90
2022-07-29T18:14:19.359Z,70.50
2022-07-29T18:16:46.667Z,70.60
2022-07-29T18:19:14.163Z,69.90
2022-07-29T18:21:51.434Z,70.40
2022-07-29T18:24:25.454Z,69.50
2022-07-29T18:26:53.266Z,70.00
2022-07-29T18:29:21.032Z,68.90
2022-07-29T18:31:48.303Z,68.70
2022-07-29T18:34:17.113Z,69.50
2022-07-29T18:36:45.939Z,69.10
2022-07-29T18:39:20.339Z,69.30
2022-07-29T18:41:51.388Z,69.60
2022-07-29T18:44:22.655Z,69.70
2022-07-29T18:46:53.456Z,69.70
2022-07-29T18:49:22.222Z,70.40
2022-07-29T18:51:51.051Z,70.50
2022-07-29T18:54:19.119Z,70.80
2022-07-29T18:56:47.084Z,70.90
2022-07-29T18:59:20.267Z,71.60
2022-07-29T19:01:48.617Z,71.70
2022-07-29T19:04:17.510Z,72.00
2022-07-29T19:06:45.299Z,71.60
2022-07-29T19:09:12.499Z,71.50
2022-07-29T19:11:39.818Z,71.90
2022-07-29T19:14:07.316Z,73.30
2022-07-29T19:16:34.599Z,73.70
2022-07-29T19:19:01.791Z,73.90
2022-07-29T19:21:29.767Z,74.80
2022-07-29T19:24:01.845Z,74.80
2022-07-29T19:26:36.574Z,74.90
2022-07-29T19:29:04.710Z,74.80
2022-07-29T19:31:31.927Z,75.10
2022-07-29T19:33:59.183Z,75.00
2022-07-29T19:36:27.369Z,74.50
2022-07-29T19:38:54.575Z,73.90
2022-07-29T19:41:21.828Z,74.30
2022-07-29T19:43:50.887Z,74.50
2022-07-29T19:46:20.569Z,74.20
2022-07-29T19:48:48.048Z,74.90
2022-07-29T19:51:15.363Z,75.10
2022-07-29T19:53:42.667Z,75.80
2022-07-29T19:56:09.854Z,76.50
2022-07-29T19:58:37.277Z,77.00
2022-07-29T20:01:10.211Z,77.70
2022-07-29T20:03:40.236Z,78.40
2022-07-29T20:06:08.524Z,77.40
2022-07-29T20:08:35.841Z,78.50
2022-07-29T20:11:03.504Z,78.30
2022-07-29T20:13:33.119Z,77.80
2022-07-29T20:16:02.074Z,78.40
2022-07-29T20:18:29.349Z,77.30
2022-07-29T20:20:57.616Z,76.60
2022-07-29T20:23:24.949Z,77.30
2022-07-29T20:25:52.130Z,78.20
2022-07-29T20:28:21.238Z,79.60
2022-07-29T20:30:48.560Z,79.80
2022-07-29T20:33:16.512Z,81.20
2022-07-29T20:35:43.865Z,81.70
2022-07-29T20:38:13.945Z,83.00
2022-07-29T20:40:44.988Z,83.00
2022-07-29T20:43:12.225Z,83.60
2022-07-29T20:45:39.641Z,84.10
2022-07-29T20:48:08.304Z,84.50
2022-07-29T20:50:36.129Z,84.90
2022-07-29T20:53:03.792Z,85.50
2022-07-29T20:55:32.186Z,85.60
2022-07-29T20:57:59.518Z,86.90
2022-07-29T21:00:26.794Z,86.20
2022-07-29T21:02:54.231Z,85.70
2022-07-29T21:05:21.449Z,85.80
2022-07-29T21:07:48.666Z,85.20
2022-07-29T21:10:18.285Z,85.20
2022-07-29T21:12:48.952Z,84.80
2022-07-29T21:15:16.402Z,85.80
2022-07-29T21:17:47.182Z,85.90
2022-07-29T21:20:19.705Z,84.80
2022-07-29T21:22:46.916Z,85.80
2022-07-29T21:25:14.134Z,85.20
2022-07-29T21:27:59.590Z,85.20
2022-07-29T21:30:26.798Z,85.40
2022-07-29T21:32:54.033Z,84.70
2022-07-29T21:36:01.930Z,84.70
2022-07-29T21:38:08.313Z,85.00
2022-07-29T21:40:35.508Z,84.40
2022-07-29T21:43:02.687Z,85.40
2022-07-29T21:45:30.209Z,85.90
2022-07-29T21:47:57.302Z,86.90
2022-07-29T21:50:24.465Z,87.20
2022-07-29T21:52:51.629Z,87.30
2022-07-29T21:55:18.723Z,87.50
2022-07-29T21:57:46.595Z,87.40
2022-07-29T22:00:17.161Z,87.20
2022-07-29T22:02:45.024Z,88.20
2022-07-29T22:05:13.152Z,88.80
2022-07-29T22:07:56.208Z,89.30
2022-07-29T22:10:26.532Z,89.20
2022-07-29T22:12:56.580Z,88.00
2022-07-29T22:15:25.291Z,87.80
2022-07-29T22:17:52.516Z,86.90
2022-07-29T22:20:20.780Z,86.70
2022-07-29T22:22:48.254Z,87.00
2022-07-29T22:25:15.731Z,87.90
2022-07-29T22:27:42.963Z,88.10
2022-07-29T22:30:10.977Z,88.30
2022-07-29T22:32:38.269Z,88.00
2022-07-29T22:35:06.043Z,87.50
2022-07-29T22:37:33.423Z,87.50
2022-07-29T22:40:00.666Z,87.40
2022-07-29T22:42:27.911Z,87.80
2022-07-29T22:44:55.078Z,87.60
2022-07-29T22:47:39.052Z,88.00
2022-07-29T22:50:09.733Z,88.50
2022-07-29T22:52:36.974Z,89.20
2022-07-29T22:55:05.436Z,89.30
2022-07-29T22:57:32.696Z,89.40
2022-07-29T23:00:02.432Z,89.20
2022-07-29T23:02:29.837Z,88.50
2022-07-29T23:04:57.346Z,88.70
2022-07-29T23:07:24.892Z,88.30
2022-07-29T23:09:52.095Z,88.50
2022-07-29T23:12:19.291Z,88.60
2022-07-29T23:14:46.456Z,88.90
2022-07-29T23:17:13.647Z,89.10
2022-07-29T23:19:40.885Z,89.60
2022-07-29T23:22:08.016Z,89.90
2022-07-29T23:24:35.271Z,90.10
2022-07-29T23:27:02.854Z,90.00
2022-07-29T23:29:32.773Z,89.70
2022-07-29T23:32:03.602Z,89.30
2022-07-29T23:34:30.722Z,89.90
2022-07-29T23:36:57.969Z,89.50
2022-07-29T23:39:25.287Z,88.70
2022-07-29T23:41:52.399Z,89.20
2022-07-29T23:44:19.715Z,90.00
2022-07-29T23:46:46.960Z,90.30
2022-07-29T23:49:14.672Z,90.30
2022-07-29T23:51:42.011Z,90.30
2022-07-29T23:54:09.166Z,90.20
2022-07-29T23:56:36.276Z,89.30
2022-07-29T23:59:06.024Z,88.40
